createdAt,value
2023-05-15T00:00:06.555Z,101276.00
2023-05-15T00:02:35.893Z,101300.00
2023-05-15T00:05:05.435Z,101294.00
2023-05-15T00:07:34.132Z,101271.00
2023-05-15T00:10:02.665Z,101296.00
2023-05-15T00:12:30.928Z,101267.00
2023-05-15T00:15:00.580Z,101289.00
2023-05-15T00:17:28.970Z,101248.00
2023-05-15T00:19:59.153Z,101281.00
2023-05-15T00:22:27.613Z,101248.00
2023-05-15T00:24:55.980Z,101253.00
2023-05-15T00:27:24.319Z,101253.00
2023-05-15T00:29:52.531Z,101282.00
2023-05-15T00:32:22.223Z,101254.00
2023-05-15T00:34:50.647Z,101261.00
2023-05-15T00:37:18.953Z,101267.00
2023-05-15T00:39:47.205Z,101243.00
2023-05-15T00:42:17.224Z,101255.00
2023-05-15T00:44:46.196Z,101247.00
2023-05-15T00:47:15.684Z,101274.00
2023-05-15T00:49:46.458Z,101249.00
2023-05-15T00:52:15.493Z,101231.00
2023-05-15T00:54:43.850Z,101264.00
2023-05-15T00:57:12.740Z,101263.00
2023-05-15T00:59:41.775Z,101233.00
2023-05-15T01:02:10.488Z,101238.00
2023-05-15T01:04:38.929Z,101233.00
2023-05-15T01:07:08.646Z,101246.00
2023-05-15T01:09:38.363Z,101273.00
2023-05-15T01:12:09.322Z,101258.00
2023-05-15T01:14:37.758Z,101280.00
2023-05-15T01:17:06.203Z,101245.00
2023-05-15T01:19:35.825Z,101215.00
2023-05-15T01:22:36.225Z,101276.00
2023-05-15T01:25:39.256Z,101257.00
2023-05-15T01:28:13.612Z,101244.00
2023-05-15T01:30:46.054Z,101254.00
2023-05-15T01:33:22.130Z,101236.00
2023-05-15T01:35:58.673Z,101254.00
2023-05-15T01:38:35.898Z,101253.00
2023-05-15T01:41:12.036Z,101246.00
2023-05-15T01:43:47.111Z,101285.00
2023-05-15T01:46:18.550Z,101253.00
2023-05-15T01:48:47.511Z,101243.00
2023-05-15T01:51:17.746Z,101241.00
2023-05-15T01:53:47.250Z,101246.00
2023-05-15T01:56:16.815Z,101257.00
2023-05-15T01:58:46.635Z,101244.00
2023-05-15T02:01:15.676Z,101248.00
2023-05-15T02:03:45.038Z,101266.00
2023-05-15T02:06:14.851Z,101260.00
2023-05-15T02:08:44.175Z,101260.00
2023-05-15T02:11:13.014Z,101207.00
2023-05-15T02:13:43.330Z,101249.00
2023-05-15T02:16:13.400Z,101229.00
2023-05-15T02:18:42.128Z,101248.00
2023-05-15T02:21:10.682Z,101200.00
2023-05-15T02:23:39.431Z,101244.00
2023-05-15T02:26:28.126Z,101245.00
2023-05-15T02:29:08.290Z,101237.00
2023-05-15T02:31:54.401Z,101234.00
2023-05-15T02:34:33.657Z,101247.00
2023-05-15T02:37:05.422Z,101208.00
2023-05-15T02:39:36.157Z,101236.00
2023-05-15T02:42:06.302Z,101230.00
2023-05-15T02:44:38.958Z,101225.00
2023-05-15T02:47:09.815Z,101211.00
2023-05-15T02:49:38.578Z,101220.00
2023-05-15T02:52:08.085Z,101201.00
2023-05-15T02:54:36.578Z,101193.00
2023-05-15T02:57:06.019Z,101226.00
2023-05-15T02:59:35.364Z,101223.00
2023-05-15T03:02:03.874Z,101207.00
2023-05-15T03:04:34.091Z,101224.00
2023-05-15T03:07:03.055Z,101192.00
2023-05-15T03:09:31.600Z,101170.00
2023-05-15T03:12:00.292Z,101206.00
2023-05-15T03:14:29.212Z,101220.00
2023-05-15T03:16:57.802Z,101213.00
2023-05-15T03:19:26.879Z,101205.00
2023-05-15T03:21:57.456Z,101227.00
2023-05-15T03:24:26.832Z,101211.00
2023-05-15T03:26:56.392Z,101199.00
2023-05-15T03:29:25.352Z,101178.00
2023-05-15T03:31:54.980Z,101208.00
2023-05-15T03:34:24.182Z,101183.00
2023-05-15T03:36:53.095Z,101199.00
2023-05-15T03:39:23.310Z,101199.00
2023-05-15T03:41:51.778Z,101238.00
2023-05-15T03:44:21.201Z,101213.00
2023-05-15T03:46:50.837Z,101234.00
2023-05-15T03:49:20.241Z,101213.00
2023-05-15T03:51:48.829Z,101189.00
2023-05-15T03:54:17.273Z,101215.00
2023-05-15T03:56:47.119Z,101226.00
2023-05-15T03:59:15.885Z,101236.00
2023-05-15T04:01:59.454Z,101237.00
2023-05-15T04:04:32.379Z,101237.00
2023-05-15T04:07:01.046Z,101255.00
2023-05-15T04:09:29.433Z,101210.00
2023-05-15T04:11:59.530Z,101203.00
2023-05-15T04:14:27.869Z,101211.00
2023-05-15T04:16:56.339Z,101213.00
2023-05-15T04:19:24.894Z,101169.00
2023-05-15T04:21:53.255Z,101212.00
2023-05-15T04:24:21.994Z,101217.00
2023-05-15T04:26:50.883Z,101221.00
2023-05-15T04:29:20.634Z,101198.00
2023-05-15T04:31:52.538Z,101221.00
2023-05-15T04:34:21.035Z,101226.00
2023-05-15T04:36:52.513Z,101202.00
2023-05-15T04:39:21.767Z,101213.00
2023-05-15T04:41:50.429Z,101145.00
2023-05-15T04:44:20.333Z,101211.00
2023-05-15T04:46:48.970Z,101217.00
2023-05-15T04:49:17.600Z,101228.00
2023-05-15T04:51:45.933Z,101236.00
2023-05-15T04:54:14.551Z,101216.00
2023-05-15T04:56:42.923Z,101226.00
2023-05-15T04:59:11.300Z,101214.00
2023-05-15T05:01:41.156Z,101209.00
2023-05-15T05:04:09.581Z,101204.00
2023-05-15T05:06:38.491Z,101223.00
2023-05-15T05:09:07.048Z,101201.00
2023-05-15T05:11:36.075Z,101167.00
2023-05-15T05:14:04.839Z,101223.00
2023-05-15T05:16:33.866Z,101189.00
2023-05-15T05:19:04.077Z,101220.00
2023-05-15T05:21:32.826Z,101202.00
2023-05-15T05:24:01.852Z,101194.00
2023-05-15T05:26:30.664Z,101241.00
2023-05-15T05:28:59.077Z,101215.00
2023-05-15T05:31:27.622Z,101222.00
2023-05-15T05:33:56.612Z,101248.00
2023-05-15T05:36:28.722Z,101212.00
2023-05-15T05:38:57.288Z,101209.00
2023-05-15T05:41:26.753Z,101196.00
2023-05-15T05:43:55.605Z,101245.00
2023-05-15T05:46:26.608Z,101261.00
2023-05-15T05:48:56.050Z,101182.00
2023-05-15T05:51:26.151Z,101225.00
2023-05-15T05:53:56.629Z,101242.00
2023-05-15T05:56:25.072Z,101248.00
2023-05-15T05:58:54.166Z,101283.00
2023-05-15T06:01:23.385Z,101269.00
2023-05-15T06:03:52.895Z,101265.00
2023-05-15T06:06:22.510Z,101259.00
2023-05-15T06:08:56.329Z,101252.00
2023-05-15T06:11:27.596Z,101254.00
2023-05-15T06:13:56.219Z,101254.00
2023-05-15T06:16:24.576Z,101222.00
2023-05-15T06:18:53.332Z,101246.00
2023-05-15T06:21:22.750Z,101258.00
2023-05-15T06:23:52.858Z,101204.00
2023-05-15T06:26:22.282Z,101224.00
2023-05-15T06:28:51.772Z,101251.00
2023-05-15T06:31:20.512Z,101246.00
2023-05-15T06:33:48.970Z,101262.00
2023-05-15T06:36:18.248Z,101259.00
2023-05-15T06:38:47.378Z,101243.00
